Time;durP1;ratioP1;P1;durP2;ratioP2;P2;SDS_P1;SDS_P2;PMS_P1;PMS_P2;Temp;Humidity;BMP_temperature;BMP_pressure;BME280_temperature;BME280_humidity;BME280_pressure;Samples;Min_cycle;Max_cycle;Signal;HPM_P1;HPM_P2
2023/08/27 00:00:10;;;;;;;1.80;1.70;;;29.00;68.60;;;;;;4858872;29;20430;-82
2023/08/27 00:02:41;;;;;;;1.90;1.80;;;29.00;68.60;;;;;;4859348;29;20484;-83
2023/08/27 00:05:10;;;;;;;2.23;1.90;;;29.00;68.60;;;;;;4858821;29;20444;-82
2023/08/27 00:07:38;;;;;;;1.90;1.80;;;29.00;68.70;;;;;;4859082;29;21374;-83
2023/08/27 00:10:07;;;;;;;1.80;1.70;;;29.00;68.60;;;;;;4854403;29;20479;-83
2023/08/27 00:12:35;;;;;;;1.90;1.77;;;29.00;68.60;;;;;;4846285;29;20954;-82
2023/08/27 00:15:03;;;;;;;1.70;1.60;;;29.00;68.60;;;;;;4840931;29;20453;-83
2023/08/27 00:17:33;;;;;;;1.90;1.80;;;29.00;68.60;;;;;;4846439;29;20529;-83
2023/08/27 00:20:03;;;;;;;2.00;1.40;;;29.00;68.60;;;;;;4840534;29;20922;-83
2023/08/27 00:22:32;;;;;;;1.73;1.63;;;29.00;68.60;;;;;;4840466;29;20457;-83
2023/08/27 00:25:00;;;;;;;1.70;1.60;;;29.00;68.60;;;;;;4840636;29;20451;-83
2023/08/27 00:27:28;;;;;;;1.73;1.63;;;29.00;68.60;;;;;;4856746;29;20524;-83
2023/08/27 00:29:56;;;;;;;1.87;1.77;;;29.00;68.60;;;;;;4857742;29;20459;-83
2023/08/27 00:32:27;;;;;;;2.00;1.90;;;29.00;68.60;;;;;;4856722;29;20477;-83
2023/08/27 00:34:56;;;;;;;1.77;1.67;;;28.90;68.60;;;;;;4857720;29;20475;-83
2023/08/27 00:37:25;;;;;;;1.80;1.70;;;28.90;68.60;;;;;;4874393;29;20469;-83
2023/08/27 00:39:53;;;;;;;1.73;1.63;;;28.90;68.60;;;;;;4852676;29;20509;-83
2023/08/27 00:42:22;;;;;;;2.07;1.93;;;28.90;68.60;;;;;;4844230;29;20470;-84
2023/08/27 00:44:50;;;;;;;1.83;1.73;;;28.90;68.60;;;;;;4855990;29;20505;-83
2023/08/27 00:47:19;;;;;;;1.80;1.70;;;28.90;68.70;;;;;;4861509;29;20445;-83
2023/08/27 00:49:47;;;;;;;1.70;1.60;;;28.90;68.60;;;;;;4862040;29;20524;-83
2023/08/27 00:52:20;;;;;;;1.70;1.60;;;28.90;68.60;;;;;;4862408;29;20450;-83
2023/08/27 00:54:50;;;;;;;1.77;1.67;;;28.90;68.60;;;;;;4860992;29;20469;-82
2023/08/27 00:57:21;;;;;;;1.80;1.70;;;28.90;68.60;;;;;;4860490;29;20466;-82
2023/08/27 00:59:49;;;;;;;1.77;1.67;;;28.90;68.70;;;;;;4861071;29;20448;-82
2023/08/27 01:02:17;;;;;;;1.90;1.80;;;28.90;68.60;;;;;;4860869;29;20498;-83
2023/08/27 01:04:46;;;;;;;1.70;1.60;;;28.90;68.60;;;;;;4861808;29;20542;-83
2023/08/27 01:07:24;;;;;;;1.80;1.70;;;28.90;68.60;;;;;;4860834;29;20464;-82
2023/08/27 01:10:01;;;;;;;1.73;1.63;;;28.90;68.70;;;;;;4858010;29;21220;-83
2023/08/27 01:12:36;;;;;;;1.87;1.77;;;28.90;68.60;;;;;;4852740;29;20828;-83
2023/08/27 01:15:07;;;;;;;2.03;1.93;;;28.90;68.70;;;;;;4865441;29;20474;-83
2023/08/27 01:17:37;;;;;;;1.90;1.80;;;28.90;68.70;;;;;;4861124;29;20535;-82
2023/08/27 01:20:07;;;;;;;1.80;1.70;;;28.90;68.70;;;;;;4860701;29;20824;-83
2023/08/27 01:22:37;;;;;;;1.70;1.60;;;28.90;68.70;;;;;;4868291;29;20935;-83
2023/08/27 01:25:07;;;;;;;2.40;2.10;;;28.90;68.70;;;;;;4850546;29;20492;-83
2023/08/27 01:27:40;;;;;;;1.60;1.50;;;28.90;68.70;;;;;;4853952;29;20962;-83
2023/08/27 01:30:16;;;;;;;3.53;1.60;;;28.90;68.70;;;;;;4852202;29;20476;-82
2023/08/27 01:32:50;;;;;;;1.77;1.67;;;28.90;68.70;;;;;;4856834;29;20470;-83
2023/08/27 01:35:18;;;;;;;1.57;1.50;;;28.90;68.70;;;;;;4857386;29;20468;-83
2023/08/27 01:37:49;;;;;;;1.70;1.60;;;28.90;68.70;;;;;;4853735;29;20502;-83
2023/08/27 01:40:19;;;;;;;1.97;1.70;;;28.90;68.70;;;;;;4861129;29;20538;-83
2023/08/27 01:42:48;;;;;;;2.07;1.97;;;28.90;68.70;;;;;;4854628;29;20526;-83
2023/08/27 01:45:17;;;;;;;1.93;1.83;;;28.90;68.70;;;;;;4846831;29;20487;-83
2023/08/27 01:47:45;;;;;;;1.87;1.77;;;28.80;68.70;;;;;;4860537;29;20450;-83
2023/08/27 01:50:13;;;;;;;2.17;1.97;;;28.90;68.70;;;;;;4861624;29;20482;-83
2023/08/27 01:52:42;;;;;;;1.50;1.40;;;28.80;68.70;;;;;;4859479;29;20465;-82
2023/08/27 01:55:11;;;;;;;1.90;1.80;;;28.90;68.70;;;;;;4859805;29;20464;-83
2023/08/27 01:57:39;;;;;;;1.50;1.40;;;28.80;68.70;;;;;;4860350;29;21143;-83
2023/08/27 02:00:09;;;;;;;2.03;1.90;;;28.80;68.70;;;;;;4859676;29;20452;-82
2023/08/27 02:02:43;;;;;;;1.70;1.60;;;28.90;68.70;;;;;;4860647;29;20964;-83
2023/08/27 02:05:12;;;;;;;1.90;1.80;;;28.80;68.70;;;;;;4858322;29;20497;-83
2023/08/27 02:07:41;;;;;;;1.73;1.63;;;28.80;68.70;;;;;;4850104;29;20474;-83
2023/08/27 02:10:11;;;;;;;2.43;2.23;;;28.80;68.70;;;;;;4844891;29;21005;-82
2023/08/27 02:12:41;;;;;;;1.63;1.53;;;28.80;68.70;;;;;;4847831;29;21277;-83
2023/08/27 02:15:09;;;;;;;1.90;1.80;;;28.80;68.70;;;;;;4840988;29;20511;-83
2023/08/27 02:17:38;;;;;;;1.80;1.70;;;28.80;68.70;;;;;;4859186;29;20990;-83
2023/08/27 02:20:09;;;;;;;2.00;1.90;;;28.80;68.70;;;;;;4859348;29;20514;-83
2023/08/27 02:22:38;;;;;;;1.50;1.43;;;28.80;68.70;;;;;;4849717;29;20481;-83
2023/08/27 02:25:07;;;;;;;2.20;1.90;;;28.80;68.70;;;;;;4843391;29;20514;-83
2023/08/27 02:27:37;;;;;;;2.50;2.00;;;28.80;68.70;;;;;;4851666;29;20469;-83
2023/08/27 02:30:06;;;;;;;1.37;1.30;;;28.80;68.70;;;;;;4855918;29;20467;-83
2023/08/27 02:32:36;;;;;;;1.63;1.53;;;28.80;68.70;;;;;;4856232;29;20890;-83
2023/08/27 02:35:05;;;;;;;2.10;2.00;;;28.80;68.70;;;;;;4858249;29;20527;-83
2023/08/27 02:37:33;;;;;;;1.60;1.50;;;28.80;68.70;;;;;;4858540;29;20986;-83
2023/08/27 02:40:01;;;;;;;1.63;1.53;;;28.80;68.70;;;;;;4854789;29;21011;-83
2023/08/27 02:42:30;;;;;;;1.80;1.70;;;28.80;68.70;;;;;;4858778;29;20507;-83
2023/08/27 02:45:01;;;;;;;2.00;1.90;;;28.80;68.70;;;;;;4851705;29;20490;-83
2023/08/27 02:47:31;;;;;;;1.70;1.60;;;28.80;68.70;;;;;;4873355;29;20537;-83
2023/08/27 02:50:00;;;;;;;1.73;1.63;;;28.80;68.70;;;;;;4859738;29;20433;-83
2023/08/27 02:52:28;;;;;;;1.50;1.40;;;28.80;68.70;;;;;;4852529;29;20844;-83
2023/08/27 02:54:56;;;;;;;1.77;1.67;;;28.80;68.70;;;;;;4860144;29;20461;-83
2023/08/27 02:57:24;;;;;;;1.70;1.60;;;28.80;68.70;;;;;;4872970;29;21002;-83
2023/08/27 02:59:52;;;;;;;1.90;1.80;;;28.80;68.70;;;;;;4859448;29;20450;-84
2023/08/27 03:02:22;;;;;;;1.77;1.67;;;28.80;68.70;;;;;;4874151;29;20466;-82
2023/08/27 03:04:51;;;;;;;1.80;1.50;;;28.80;68.70;;;;;;4873890;29;21179;-83
2023/08/27 03:07:19;;;;;;;1.70;1.60;;;28.80;68.70;;;;;;4852421;29;20513;-83
2023/08/27 03:09:48;;;;;;;1.90;1.80;;;28.80;68.80;;;;;;4856852;29;20474;-82
2023/08/27 03:12:18;;;;;;;1.50;1.40;;;28.70;68.80;;;;;;4856173;29;20819;-83
2023/08/27 03:14:46;;;;;;;1.60;1.50;;;28.70;68.70;;;;;;4845644;29;20468;-83
2023/08/27 03:17:14;;;;;;;2.20;2.10;;;28.70;68.80;;;;;;4873978;29;20459;-83
2023/08/27 03:19:44;;;;;;;1.80;1.70;;;28.70;68.80;;;;;;4858185;29;20494;-82
2023/08/27 03:22:12;;;;;;;1.73;1.63;;;28.70;68.80;;;;;;4854393;29;20477;-83
2023/08/27 03:24:40;;;;;;;1.50;1.40;;;28.70;68.80;;;;;;4840733;29;20480;-83
2023/08/27 03:27:09;;;;;;;1.57;1.47;;;28.70;68.80;;;;;;4853597;29;20815;-83
2023/08/27 03:29:37;;;;;;;2.23;1.70;;;28.70;68.80;;;;;;4859221;29;20457;-83
2023/08/27 03:32:05;;;;;;;1.90;1.80;;;28.70;68.80;;;;;;4857593;29;20503;-83
2023/08/27 03:34:34;;;;;;;2.00;1.90;;;28.70;68.80;;;;;;4873271;29;20474;-83
2023/08/27 03:37:04;;;;;;;1.87;1.77;;;28.70;68.80;;;;;;4858244;29;20866;-84
2023/08/27 03:39:32;;;;;;;2.77;1.60;;;28.70;68.80;;;;;;4857856;29;21123;-84
2023/08/27 03:42:00;;;;;;;1.60;1.50;;;28.70;68.80;;;;;;4858902;29;20472;-83
2023/08/27 03:44:28;;;;;;;2.03;1.93;;;28.70;68.80;;;;;;4857552;29;20484;-83
2023/08/27 03:46:58;;;;;;;2.10;2.00;;;28.70;68.80;;;;;;4858220;29;20455;-84
2023/08/27 03:49:26;;;;;;;1.93;1.83;;;28.70;68.80;;;;;;4859067;29;20446;-83
2023/08/27 03:51:54;;;;;;;2.00;1.63;;;28.70;68.80;;;;;;4858223;29;20955;-83
2023/08/27 03:54:25;;;;;;;2.50;1.90;;;28.70;68.80;;;;;;4857554;29;20464;-83
2023/08/27 03:56:53;;;;;;;1.53;1.43;;;28.70;68.80;;;;;;4873242;29;20527;-82
2023/08/27 03:59:21;;;;;;;2.00;1.90;;;28.70;68.80;;;;;;4858917;29;20523;-82
2023/08/27 04:01:50;;;;;;;1.57;1.47;;;28.70;68.80;;;;;;4873606;29;20520;-82
2023/08/27 04:04:19;;;;;;;1.80;1.70;;;28.70;68.80;;;;;;4855724;29;20452;-83
2023/08/27 04:06:47;;;;;;;1.77;1.67;;;28.70;68.80;;;;;;4852284;29;20462;-83
2023/08/27 04:09:16;;;;;;;1.60;1.50;;;28.70;68.80;;;;;;4873005;29;20471;-83
2023/08/27 04:11:45;;;;;;;1.77;1.67;;;28.70;68.80;;;;;;4858079;29;20609;-83
2023/08/27 04:14:13;;;;;;;1.67;1.57;;;28.70;68.80;;;;;;4861150;29;20488;-82
2023/08/27 04:16:41;;;;;;;1.50;1.40;;;28.70;68.80;;;;;;4862534;29;20804;-83
2023/08/27 04:19:10;;;;;;;1.70;1.60;;;28.70;68.80;;;;;;4861278;29;20467;-83
2023/08/27 04:21:40;;;;;;;1.63;1.53;;;28.70;68.90;;;;;;4861539;29;20472;-84
2023/08/27 04:24:09;;;;;;;1.60;1.50;;;28.70;68.90;;;;;;4857965;29;20462;-83
2023/08/27 04:26:38;;;;;;;1.60;1.50;;;28.70;68.80;;;;;;4851888;29;20482;-83
2023/08/27 04:29:08;;;;;;;1.77;1.67;;;28.60;68.90;;;;;;4860723;29;20484;-84
2023/08/27 04:31:37;;;;;;;1.90;1.63;;;28.60;68.90;;;;;;4862453;29;20493;-83
2023/08/27 04:34:05;;;;;;;1.90;1.80;;;28.60;68.90;;;;;;4856802;29;20486;-83
2023/08/27 04:36:34;;;;;;;1.70;1.60;;;28.70;68.90;;;;;;4859197;29;20566;-83
2023/08/27 04:39:02;;;;;;;1.53;1.43;;;28.60;68.90;;;;;;4862044;29;20454;-83
2023/08/27 04:41:33;;;;;;;1.60;1.50;;;28.60;68.90;;;;;;4862433;29;20515;-83
2023/08/27 04:44:03;;;;;;;1.60;1.50;;;28.60;68.90;;;;;;4861420;29;20971;-82
2023/08/27 04:46:33;;;;;;;1.77;1.67;;;28.60;68.90;;;;;;4876121;29;20487;-82
2023/08/27 04:49:01;;;;;;;2.07;1.97;;;28.60;68.90;;;;;;4860190;29;20453;-83
2023/08/27 04:51:30;;;;;;;1.93;1.83;;;28.60;68.90;;;;;;4860703;29;20474;-83
2023/08/27 04:53:58;;;;;;;1.60;1.50;;;28.60;68.90;;;;;;4861736;29;20844;-82
2023/08/27 04:56:27;;;;;;;1.90;1.77;;;28.60;68.90;;;;;;4861661;29;20556;-83
2023/08/27 04:58:55;;;;;;;2.17;2.00;;;28.60;68.90;;;;;;4859909;29;20476;-82
2023/08/27 05:01:23;;;;;;;1.70;1.60;;;28.60;68.90;;;;;;4860471;29;20472;-83
2023/08/27 05:03:53;;;;;;;1.63;1.60;;;28.60;69.00;;;;;;4848648;29;20500;-83
2023/08/27 05:06:21;;;;;;;1.50;1.40;;;28.60;69.00;;;;;;4846505;29;20483;-83
2023/08/27 05:08:50;;;;;;;1.90;1.80;;;28.60;69.00;;;;;;4859137;29;21065;-83
2023/08/27 05:11:19;;;;;;;1.57;1.47;;;28.60;69.00;;;;;;4842525;29;20526;-83
2023/08/27 05:13:48;;;;;;;1.77;1.67;;;28.60;69.00;;;;;;4841105;29;20524;-83
2023/08/27 05:16:17;;;;;;;1.63;1.53;;;28.60;69.00;;;;;;4846798;29;20461;-83
2023/08/27 05:18:47;;;;;;;1.70;1.60;;;28.60;69.00;;;;;;4860391;29;20462;-82
2023/08/27 05:21:16;;;;;;;2.27;1.90;;;28.60;69.00;;;;;;4875604;29;20449;-83
2023/08/27 05:23:44;;;;;;;1.90;1.80;;;28.60;69.00;;;;;;4844965;29;20457;-83
2023/08/27 05:26:13;;;;;;;1.53;1.53;;;28.60;69.00;;;;;;4846864;29;20490;-83
2023/08/27 05:28:41;;;;;;;1.83;1.73;;;28.60;69.00;;;;;;4860532;29;20857;-83
2023/08/27 05:31:10;;;;;;;1.73;1.63;;;28.60;69.00;;;;;;4857948;29;20626;-83
2023/08/27 05:33:38;;;;;;;1.87;1.77;;;28.60;69.00;;;;;;4848591;29;20957;-83
2023/08/27 05:36:06;;;;;;;1.20;1.20;;;28.60;69.00;;;;;;4860133;29;20467;-83
2023/08/27 05:38:36;;;;;;;2.07;1.97;;;28.60;69.00;;;;;;4869039;29;20546;-82
2023/08/27 05:41:04;;;;;;;1.97;1.87;;;28.60;69.00;;;;;;4860398;29;20494;-82
2023/08/27 05:43:32;;;;;;;1.73;1.63;;;28.60;69.00;;;;;;4859596;29;20467;-83
2023/08/27 05:46:01;;;;;;;1.60;1.50;;;28.60;69.00;;;;;;4860102;29;21063;-83
2023/08/27 05:48:29;;;;;;;1.80;1.70;;;28.60;69.00;;;;;;4859744;29;20470;-83
2023/08/27 05:51:02;;;;;;;1.43;1.33;;;28.60;69.00;;;;;;4859787;29;20462;-83
2023/08/27 05:53:32;;;;;;;1.57;1.53;;;28.60;69.00;;;;;;4859825;29;20471;-83
2023/08/27 05:56:02;;;;;;;1.90;1.80;;;28.60;69.00;;;;;;4859928;29;20465;-83
2023/08/27 05:58:30;;;;;;;2.30;2.10;;;28.60;69.00;;;;;;4874471;29;20480;-84
2023/08/27 06:00:59;;;;;;;2.50;2.40;;;28.50;68.90;;;;;;4854237;29;20469;-83
2023/08/27 06:03:27;;;;;;;1.77;1.67;;;28.50;68.90;;;;;;4847728;29;20471;-84
2023/08/27 06:05:55;;;;;;;1.57;1.40;;;28.50;68.90;;;;;;4851100;29;20592;-83
2023/08/27 06:08:24;;;;;;;1.50;1.40;;;28.50;68.90;;;;;;4859438;29;20568;-83
2023/08/27 06:10:52;;;;;;;1.50;1.40;;;28.50;68.90;;;;;;4859749;29;20508;-83
2023/08/27 06:13:22;;;;;;;1.47;1.37;;;28.50;68.80;;;;;;4858492;29;20521;-83
2023/08/27 06:15:50;;;;;;;1.77;1.67;;;28.50;68.80;;;;;;4859631;29;20812;-84
2023/08/27 06:18:18;;;;;;;1.70;1.60;;;28.50;69.00;;;;;;4860467;29;20488;-83
2023/08/27 06:20:47;;;;;;;1.93;1.83;;;28.50;69.00;;;;;;4859313;29;20862;-83
2023/08/27 06:23:15;;;;;;;1.53;1.43;;;28.50;69.00;;;;;;4847294;29;20475;-83
2023/08/27 06:25:43;;;;;;;2.10;2.00;;;28.50;68.90;;;;;;4840697;29;20556;-83
2023/08/27 06:28:12;;;;;;;2.10;1.80;;;28.50;68.90;;;;;;4858937;29;20928;-83
2023/08/27 06:30:43;;;;;;;1.90;1.80;;;28.50;69.00;;;;;;4849057;29;20497;-83
2023/08/27 06:33:11;;;;;;;2.23;2.03;;;28.50;68.90;;;;;;4844111;29;20478;-83
2023/08/27 06:35:41;;;;;;;1.80;1.70;;;28.50;69.00;;;;;;4850834;29;20895;-83
2023/08/27 06:38:10;;;;;;;1.60;1.50;;;28.50;68.90;;;;;;4859687;29;20447;-83
2023/08/27 06:40:41;;;;;;;1.80;1.70;;;28.50;68.90;;;;;;4858974;29;20550;-83
2023/08/27 06:43:09;;;;;;;1.70;1.60;;;28.50;68.90;;;;;;4859109;29;20917;-83
2023/08/27 06:45:45;;;;;;;1.40;1.30;;;28.50;68.90;;;;;;4874876;29;20473;-82
2023/08/27 06:48:13;;;;;;;1.70;1.60;;;28.50;68.90;;;;;;4873344;29;20883;-83
2023/08/27 06:50:42;;;;;;;1.47;1.37;;;28.50;69.00;;;;;;4858891;29;20508;-83
2023/08/27 06:53:10;;;;;;;1.20;1.20;;;28.40;69.00;;;;;;4858808;29;20467;-83
2023/08/27 06:55:39;;;;;;;1.47;1.47;;;28.50;68.90;;;;;;4858589;29;20463;-82
2023/08/27 06:58:07;;;;;;;1.50;1.40;;;28.40;69.00;;;;;;4852760;29;20699;-84
2023/08/27 07:00:39;;;;;;;1.67;1.53;;;28.40;69.10;;;;;;4846254;29;20461;-83
2023/08/27 07:03:09;;;;;;;1.63;1.53;;;28.50;69.00;;;;;;4855181;29;20463;-83
2023/08/27 07:05:38;;;;;;;1.20;1.20;;;28.40;69.10;;;;;;4846707;29;20940;-83
2023/08/27 07:08:07;;;;;;;1.63;1.40;;;28.50;69.20;;;;;;4858021;29;20987;-83
2023/08/27 07:10:36;;;;;;;1.53;1.43;;;28.50;69.10;;;;;;4858450;29;20469;-83
2023/08/27 07:13:04;;;;;;;1.90;1.70;;;28.40;69.10;;;;;;4872925;29;20462;-83
2023/08/27 07:15:33;;;;;;;1.90;1.80;;;28.40;69.10;;;;;;4858430;29;20485;-83
2023/08/27 07:18:01;;;;;;;1.90;1.80;;;28.40;69.10;;;;;;4858947;29;20536;-83
2023/08/27 07:20:32;;;;;;;1.30;1.30;;;28.40;69.10;;;;;;4859954;29;20507;-84
2023/08/27 07:23:00;;;;;;;1.83;1.73;;;28.40;69.10;;;;;;4873446;29;20484;-83
2023/08/27 07:25:28;;;;;;;1.13;1.13;;;28.40;69.10;;;;;;4858303;29;20963;-84
2023/08/27 07:27:56;;;;;;;1.13;1.07;;;28.40;69.10;;;;;;4850281;29;20483;-83
2023/08/27 07:30:25;;;;;;;1.40;1.30;;;28.40;69.10;;;;;;4854843;29;20499;-82
2023/08/27 07:32:53;;;;;;;1.70;1.60;;;28.40;69.10;;;;;;4853220;29;21023;-83
2023/08/27 07:35:22;;;;;;;1.13;1.13;;;28.50;69.10;;;;;;4859696;29;20491;-82
2023/08/27 07:37:52;;;;;;;1.80;1.70;;;28.40;69.10;;;;;;4857689;29;20461;-82
2023/08/27 07:40:20;;;;;;;1.20;1.20;;;28.40;69.00;;;;;;4872638;29;20464;-84
2023/08/27 07:42:50;;;;;;;1.30;1.20;;;28.40;69.00;;;;;;4859089;29;20462;-84
2023/08/27 07:45:18;;;;;;;1.20;1.20;;;28.40;68.90;;;;;;4859298;29;20441;-82
2023/08/27 07:47:46;;;;;;;1.77;1.67;;;28.40;68.90;;;;;;4857911;29;21005;-84
2023/08/27 07:50:14;;;;;;;1.50;1.40;;;28.40;68.90;;;;;;4859163;29;20512;-83
2023/08/27 07:52:43;;;;;;;1.30;1.27;;;28.50;68.80;;;;;;4858700;29;20439;-83
2023/08/27 07:55:13;;;;;;;1.80;1.70;;;28.50;68.80;;;;;;4859524;29;20438;-83
2023/08/27 07:57:41;;;;;;;2.10;1.90;;;28.40;68.80;;;;;;4846234;29;20469;-83
2023/08/27 08:00:10;;;;;;;1.90;1.80;;;28.50;68.70;;;;;;4840391;29;20434;-83
2023/08/27 08:02:41;;;;;;;1.40;1.30;;;28.50;68.70;;;;;;4847567;29;20562;-83
2023/08/27 08:05:10;;;;;;;1.17;1.17;;;28.50;68.70;;;;;;4859099;29;20442;-83
2023/08/27 08:07:38;;;;;;;1.47;1.37;;;28.50;68.60;;;;;;4858562;29;20550;-84
2023/08/27 08:10:07;;;;;;;2.03;1.80;;;28.50;68.70;;;;;;4859387;29;20857;-83
2023/08/27 08:12:37;;;;;;;1.50;1.40;;;28.40;68.70;;;;;;4858280;29;20450;-83
2023/08/27 08:15:06;;;;;;;1.50;1.40;;;28.40;68.70;;;;;;4858718;29;20435;-83
2023/08/27 08:17:34;;;;;;;1.37;1.27;;;28.40;68.90;;;;;;4859043;29;21000;-83
2023/08/27 08:20:13;;;;;;;1.37;1.27;;;28.40;68.80;;;;;;4858628;29;20806;-83
2023/08/27 08:22:42;;;;;;;1.60;1.50;;;28.40;68.80;;;;;;4858483;29;21018;-83
2023/08/27 08:25:10;;;;;;;1.30;1.30;;;28.40;68.80;;;;;;4853055;29;21319;-83
2023/08/27 08:27:40;;;;;;;1.27;1.20;;;28.40;68.90;;;;;;4855912;29;20498;-82
2023/08/27 08:30:09;;;;;;;1.27;1.27;;;28.40;68.90;;;;;;4856933;29;20438;-83
2023/08/27 08:32:37;;;;;;;1.60;1.50;;;28.40;69.00;;;;;;4855051;29;20773;-82
2023/08/27 08:35:07;;;;;;;1.77;1.67;;;28.40;68.90;;;;;;4858662;29;20438;-83
2023/08/27 08:37:35;;;;;;;1.80;1.70;;;28.40;69.10;;;;;;4858535;29;20464;-83
2023/08/27 08:40:04;;;;;;;1.30;1.20;;;28.40;69.00;;;;;;4873285;29;20859;-83
2023/08/27 08:42:35;;;;;;;1.27;1.27;;;28.40;68.80;;;;;;4872270;29;20462;-84
2023/08/27 08:45:11;;;;;;;1.87;1.70;;;28.40;69.00;;;;;;4858001;29;20993;-82
2023/08/27 08:47:39;;;;;;;1.53;1.43;;;28.40;68.80;;;;;;4858759;29;20517;-83
2023/08/27 08:50:09;;;;;;;1.37;1.27;;;28.40;68.90;;;;;;4857449;29;20454;-83
2023/08/27 08:52:39;;;;;;;1.50;1.40;;;28.30;68.70;;;;;;4858541;29;20445;-82
2023/08/27 08:55:09;;;;;;;1.70;1.60;;;28.40;68.70;;;;;;4846865;29;20510;-82
2023/08/27 08:57:43;;;;;;;1.70;1.60;;;28.40;68.80;;;;;;4847579;29;20569;-83
2023/08/27 09:00:14;;;;;;;1.30;1.30;;;28.40;68.90;;;;;;4853575;29;20462;-83
2023/08/27 09:02:43;;;;;;;1.43;1.33;;;28.40;68.70;;;;;;4843558;29;20455;-83
2023/08/27 09:05:12;;;;;;;1.50;1.40;;;28.40;68.70;;;;;;4843653;29;20468;-83
2023/08/27 09:07:43;;;;;;;1.67;1.57;;;28.40;69.00;;;;;;4854822;29;20826;-83
2023/08/27 09:10:12;;;;;;;1.60;1.50;;;28.40;69.00;;;;;;4862168;29;20437;-83
2023/08/27 09:12:41;;;;;;;1.33;1.23;;;28.40;69.10;;;;;;4860679;29;20445;-83
2023/08/27 09:15:11;;;;;;;1.50;1.40;;;28.40;68.70;;;;;;4862058;29;20471;-83
2023/08/27 09:17:40;;;;;;;1.00;1.00;;;28.40;68.60;;;;;;4861372;29;20466;-83
2023/08/27 09:20:09;;;;;;;1.93;1.70;;;28.40;68.60;;;;;;4861484;29;20491;-82
2023/08/27 09:22:38;;;;;;;1.60;1.50;;;28.40;68.70;;;;;;4857071;29;20484;-82
2023/08/27 09:25:07;;;;;;;1.57;1.47;;;28.40;68.60;;;;;;4859603;29;20466;-83
2023/08/27 09:27:36;;;;;;;1.23;1.13;;;28.40;68.60;;;;;;4860667;29;20539;-82
2023/08/27 09:30:04;;;;;;;1.47;1.37;;;28.40;68.60;;;;;;4850549;29;20477;-82
2023/08/27 09:32:34;;;;;;;1.23;1.13;;;28.40;68.80;;;;;;4842822;29;20435;-83
2023/08/27 09:35:04;;;;;;;1.30;1.23;;;28.40;68.90;;;;;;4842976;29;20449;-83
2023/08/27 09:37:39;;;;;;;1.17;1.17;;;28.40;68.70;;;;;;4853434;29;20847;-84
2023/08/27 09:40:08;;;;;;;1.53;1.43;;;28.40;68.90;;;;;;4861882;29;20526;-83
2023/08/27 09:42:37;;;;;;;1.17;1.17;;;28.40;68.90;;;;;;4860414;29;20444;-83
2023/08/27 09:45:07;;;;;;;1.50;1.40;;;28.40;68.80;;;;;;4861168;29;20462;-82
2023/08/27 09:47:40;;;;;;;1.00;1.00;;;28.40;68.80;;;;;;4861167;29;20446;-83
2023/08/27 09:50:15;;;;;;;2.83;1.43;;;28.50;68.90;;;;;;4860291;29;20451;-82
2023/08/27 09:52:43;;;;;;;1.03;1.03;;;28.50;68.90;;;;;;4857733;29;20528;-83
2023/08/27 09:55:14;;;;;;;1.17;1.17;;;28.50;68.90;;;;;;4855023;29;20543;-83
2023/08/27 09:57:49;;;;;;;1.27;1.17;;;28.50;68.80;;;;;;4848340;29;20472;-83
2023/08/27 10:00:19;;;;;;;1.90;1.80;;;28.50;68.80;;;;;;4847191;29;20501;-83
2023/08/27 10:02:50;;;;;;;1.10;1.10;;;28.50;68.60;;;;;;4842580;29;20854;-83
2023/08/27 10:05:18;;;;;;;1.57;1.47;;;28.50;68.70;;;;;;4842623;29;20446;-83
2023/08/27 10:07:57;;;;;;;1.67;1.57;;;28.50;68.80;;;;;;4854332;29;20446;-83
2023/08/27 10:10:27;;;;;;;1.70;1.13;;;28.40;68.60;;;;;;4859679;29;20452;-83
2023/08/27 10:12:55;;;;;;;1.37;1.27;;;28.40;68.60;;;;;;4859678;29;20446;-83
2023/08/27 10:15:24;;;;;;;1.30;1.20;;;28.40;68.60;;;;;;4860547;29;20455;-82
2023/08/27 10:17:56;;;;;;;1.20;1.20;;;28.40;68.80;;;;;;4860217;29;20455;-83
2023/08/27 10:20:25;;;;;;;1.80;1.70;;;28.40;68.80;;;;;;4860574;29;20438;-83
2023/08/27 10:22:54;;;;;;;1.17;1.17;;;28.40;68.80;;;;;;4848445;29;20827;-83
2023/08/27 10:25:24;;;;;;;1.30;1.20;;;28.40;68.80;;;;;;4844874;29;20480;-83
2023/08/27 10:27:52;;;;;;;1.77;1.67;;;28.40;68.80;;;;;;4853460;29;20474;-83
2023/08/27 10:30:21;;;;;;;1.73;1.60;;;28.40;68.80;;;;;;4860199;29;20502;-84
2023/08/27 10:32:54;;;;;;;1.63;1.53;;;28.50;68.80;;;;;;4860294;29;20438;-83
2023/08/27 10:35:22;;;;;;;1.43;1.33;;;28.50;68.70;;;;;;4860489;29;20436;-83
2023/08/27 10:37:55;;;;;;;0.83;0.83;;;28.50;68.70;;;;;;4860231;29;20503;-83
2023/08/27 10:40:26;;;;;;;1.40;1.30;;;28.50;68.70;;;;;;4859983;29;20435;-83
2023/08/27 10:43:07;;;;;;;1.80;1.70;;;28.50;68.70;;;;;;4859528;29;20534;-83
2023/08/27 10:45:38;;;;;;;1.10;1.10;;;28.50;68.60;;;;;;4859500;29;20510;-83
2023/08/27 10:48:10;;;;;;;1.37;1.23;;;28.50;68.60;;;;;;4859455;29;20843;-83
2023/08/27 10:50:46;;;;;;;1.40;1.30;;;28.50;68.50;;;;;;4852836;29;20469;-82
2023/08/27 10:53:15;;;;;;;0.90;0.90;;;28.50;68.60;;;;;;4857479;29;20817;-82
2023/08/27 10:55:49;;;;;;;2.50;1.63;;;28.50;68.50;;;;;;4854431;29;20473;-82
2023/08/27 10:58:20;;;;;;;1.47;1.37;;;28.50;68.50;;;;;;4855456;29;20438;-82
2023/08/27 11:01:02;;;;;;;1.20;1.10;;;28.50;68.60;;;;;;4860036;29;20437;-83
2023/08/27 11:03:51;;;;;;;1.20;1.10;;;28.50;68.70;;;;;;4859365;29;20445;-84
2023/08/27 11:06:20;;;;;;;1.40;1.30;;;28.50;68.70;;;;;;4859877;29;20495;-82
2023/08/27 11:08:52;;;;;;;1.33;1.23;;;28.50;68.60;;;;;;4859804;29;20479;-82
2023/08/27 11:11:25;;;;;;;1.40;1.30;;;28.50;68.60;;;;;;4859733;29;20442;-83
2023/08/27 11:14:03;;;;;;;1.53;1.43;;;28.50;68.70;;;;;;4858763;29;20440;-82
2023/08/27 11:16:53;;;;;;;1.37;1.27;;;28.40;68.70;;;;;;4859646;29;20543;-83
2023/08/27 11:19:28;;;;;;;1.37;1.27;;;28.50;68.50;;;;;;4852170;29;20469;-83
2023/08/27 11:22:10;;;;;;;1.63;1.53;;;28.40;68.50;;;;;;4842652;29;20462;-84
2023/08/27 11:24:43;;;;;;;2.03;1.30;;;28.40;68.50;;;;;;4856864;29;20518;-83
2023/08/27 11:27:12;;;;;;;1.40;1.30;;;28.40;68.60;;;;;;4859748;29;20448;-82
2023/08/27 11:29:42;;;;;;;1.40;1.30;;;28.40;68.70;;;;;;4858748;29;20486;-82
2023/08/27 11:32:11;;;;;;;2.43;1.57;;;28.40;68.50;;;;;;4859377;29;20490;-83
2023/08/27 11:34:42;;;;;;;1.40;1.30;;;28.40;68.50;;;;;;4859481;29;20435;-82
2023/08/27 11:37:11;;;;;;;1.37;1.27;;;28.40;68.70;;;;;;4859365;29;20465;-83
2023/08/27 11:39:41;;;;;;;1.40;1.30;;;28.40;68.70;;;;;;4859687;29;20430;-83
2023/08/27 11:42:11;;;;;;;0.97;0.90;;;28.40;68.70;;;;;;4859068;29;20434;-83
2023/08/27 11:44:52;;;;;;;1.30;1.10;;;28.40;68.70;;;;;;4858535;29;20458;-83
2023/08/27 11:47:22;;;;;;;1.27;1.17;;;28.40;68.60;;;;;;4857181;29;20462;-83
2023/08/27 11:49:56;;;;;;;1.30;1.20;;;28.40;68.70;;;;;;4853832;29;20564;-84
2023/08/27 11:52:25;;;;;;;1.80;1.30;;;28.40;68.60;;;;;;4858918;29;20457;-82
2023/08/27 11:54:56;;;;;;;1.30;1.20;;;28.40;68.50;;;;;;4850349;29;20465;-82
2023/08/27 11:57:24;;;;;;;1.50;1.20;;;28.40;68.70;;;;;;4842920;29;20869;-83
2023/08/27 11:59:53;;;;;;;1.20;1.20;;;28.40;68.70;;;;;;4857637;29;20481;-82
2023/08/27 12:02:22;;;;;;;1.23;1.13;;;28.40;68.50;;;;;;4859206;29;21098;-83
2023/08/27 12:04:53;;;;;;;1.47;1.37;;;28.40;68.60;;;;;;4859175;29;20816;-83
2023/08/27 12:07:29;;;;;;;1.20;1.13;;;28.40;68.60;;;;;;4859119;29;20454;-83
2023/08/27 12:09:57;;;;;;;1.33;0.97;;;28.40;68.50;;;;;;4858780;29;20531;-83
2023/08/27 12:12:27;;;;;;;1.20;1.10;;;28.40;68.50;;;;;;4858170;29;20542;-83
2023/08/27 12:15:01;;;;;;;1.20;1.10;;;28.40;68.60;;;;;;4859130;29;20442;-83
2023/08/27 12:17:34;;;;;;;1.20;1.10;;;28.40;68.30;;;;;;4852764;29;21031;-83
2023/08/27 12:20:05;;;;;;;1.10;1.10;;;28.40;68.60;;;;;;4841074;29;20467;-84
2023/08/27 12:22:41;;;;;;;1.40;1.30;;;28.40;68.40;;;;;;4841405;29;20523;-83
2023/08/27 12:25:11;;;;;;;1.37;1.27;;;28.40;68.60;;;;;;4857443;29;21188;-83
2023/08/27 12:27:41;;;;;;;1.10;1.10;;;28.40;68.60;;;;;;4857760;29;21261;-83
2023/08/27 12:30:10;;;;;;;1.53;1.43;;;28.40;68.50;;;;;;4858799;29;20473;-83
2023/08/27 12:32:39;;;;;;;1.00;0.90;;;28.50;68.50;;;;;;4858879;29;20443;-82
2023/08/27 12:35:10;;;;;;;1.27;1.17;;;28.40;68.60;;;;;;4862797;29;20447;-82
2023/08/27 12:37:39;;;;;;;1.70;1.60;;;28.40;68.50;;;;;;4862173;29;20457;-82
2023/08/27 12:40:09;;;;;;;1.80;1.17;;;28.50;68.30;;;;;;4862376;29;20443;-82
2023/08/27 12:42:37;;;;;;;1.50;1.40;;;28.40;68.50;;;;;;4860818;29;20467;-82
2023/08/27 12:45:06;;;;;;;1.23;1.20;;;28.40;68.50;;;;;;4861016;29;20526;-83
2023/08/27 12:47:34;;;;;;;0.87;0.87;;;28.40;68.50;;;;;;4851351;29;20469;-82
2023/08/27 12:50:02;;;;;;;1.30;1.20;;;28.40;68.50;;;;;;4860639;29;20479;-83
2023/08/27 12:52:32;;;;;;;1.10;1.10;;;28.40;68.40;;;;;;4849156;29;20988;-83
2023/08/27 12:55:00;;;;;;;1.37;1.10;;;28.40;68.40;;;;;;4845187;29;20560;-84
2023/08/27 12:57:29;;;;;;;1.20;1.10;;;28.50;68.40;;;;;;4858317;29;20466;-83
2023/08/27 12:59:57;;;;;;;1.30;1.20;;;28.50;68.40;;;;;;4862234;29;21008;-83